createdAt,value
2019-01-19T00:01:40.384Z,28.10
2019-01-19T00:04:25.890Z,28.10
2019-01-19T00:06:55.138Z,28.10
2019-01-19T00:09:24.381Z,28.10
2019-01-19T00:11:56.624Z,28.10
2019-01-19T00:14:24.626Z,28.10
2019-01-19T00:16:53.941Z,28.10
2019-01-19T00:19:39.713Z,28.10
2019-01-19T00:22:08.975Z,28.10
2019-01-19T00:24:41.255Z,28.10
2019-01-19T00:27:13.521Z,28.60
2019-01-19T00:29:45.782Z,28.00
2019-01-19T00:32:33.016Z,28.00
2019-01-19T00:35:17.592Z,28.00
2019-01-19T00:37:42.367Z,28.00
2019-01-19T00:40:11.739Z,28.00
2019-01-19T00:42:41.083Z,28.00
2019-01-19T00:45:13.057Z,28.00
2019-01-19T00:47:48.417Z,28.00
2019-01-19T00:50:33.939Z,28.00
2019-01-19T00:53:03.234Z,28.00
2019-01-19T00:55:35.321Z,28.00
2019-01-19T00:58:16.495Z,28.00
2019-01-19T01:00:54.805Z,28.00
2019-01-19T01:03:25.428Z,28.00
2019-01-19T01:05:54.663Z,28.00
2019-01-19T01:08:35.985Z,27.90
2019-01-19T01:11:05.230Z,28.00
2019-01-19T01:13:37.401Z,28.10
2019-01-19T01:16:18.505Z,28.00
2019-01-19T01:18:50.747Z,28.00
2019-01-19T01:21:22.713Z,28.00
2019-01-19T01:23:57.755Z,28.00
2019-01-19T01:26:27.017Z,28.00
2019-01-19T01:28:56.349Z,28.00
2019-01-19T01:31:25.685Z,28.00
2019-01-19T01:34:03.805Z,28.00
2019-01-19T01:36:39.093Z,28.00
2019-01-19T01:39:08.302Z,28.00
2019-01-19T01:41:37.519Z,28.00
2019-01-19T01:44:18.841Z,28.00
2019-01-19T01:47:04.395Z,28.00
2019-01-19T01:49:33.657Z,28.00
2019-01-19T01:52:19.177Z,28.00
2019-01-19T01:54:51.304Z,28.00
2019-01-19T01:57:20.577Z,28.00
2019-01-19T01:59:55.535Z,28.00
2019-01-19T02:02:30.921Z,28.00
2019-01-19T02:05:00.257Z,28.00
2019-01-19T02:07:32.559Z,28.00
2019-01-19T02:10:07.979Z,27.90
2019-01-19T02:12:37.277Z,28.00
2019-01-19T02:15:06.643Z,27.90
2019-01-19T02:17:38.765Z,27.90
2019-01-19T02:20:10.963Z,27.90
2019-01-19T02:22:45.977Z,27.90
2019-01-19T02:25:26.889Z,27.90
2019-01-19T02:27:58.963Z,27.90
2019-01-19T02:30:28.248Z,27.90
2019-01-19T02:33:09.535Z,27.90
2019-01-19T02:35:48.568Z,27.90
2019-01-19T02:38:32.129Z,27.90
2019-01-19T02:41:13.279Z,27.90
2019-01-19T02:43:42.582Z,27.90
2019-01-19T02:46:28.193Z,27.90
2019-01-19T02:49:03.188Z,27.90
2019-01-19T02:51:35.490Z,27.90
2019-01-19T02:54:23.021Z,27.90
2019-01-19T02:57:08.532Z,27.90
2019-01-19T02:59:37.786Z,27.90
2019-01-19T03:02:07.132Z,27.90
2019-01-19T03:04:36.368Z,27.90
2019-01-19T03:07:14.777Z,27.90
2019-01-19T03:09:44.067Z,27.90
2019-01-19T03:12:31.156Z,27.90
2019-01-19T03:15:00.365Z,27.90
2019-01-19T03:17:29.607Z,27.90
2019-01-19T03:20:11.083Z,27.90
2019-01-19T03:22:56.899Z,27.90
2019-01-19T03:25:31.845Z,27.90
2019-01-19T03:28:01.053Z,27.90
2019-01-19T03:30:36.355Z,27.90
2019-01-19T03:33:05.728Z,27.90
2019-01-19T03:35:34.923Z,27.90
2019-01-19T03:38:22.118Z,27.90
2019-01-19T03:40:51.422Z,28.40
2019-01-19T03:43:20.648Z,27.90
2019-01-19T03:46:07.330Z,27.90
2019-01-19T03:48:39.490Z,27.90
2019-01-19T03:51:11.786Z,27.90
2019-01-19T03:53:44.001Z,27.90
2019-01-19T03:56:15.940Z,27.90
2019-01-19T03:58:45.239Z,27.90
2019-01-19T04:01:14.566Z,27.90
2019-01-19T04:03:49.858Z,27.90
2019-01-19T04:06:19.111Z,27.90
2019-01-19T04:08:48.424Z,27.90
2019-01-19T04:11:17.799Z,27.90
2019-01-19T04:13:47.077Z,27.90
2019-01-19T04:16:19.397Z,27.80
2019-01-19T04:18:54.648Z,27.90
2019-01-19T04:21:23.977Z,27.90
2019-01-19T04:23:53.286Z,27.90
2019-01-19T04:26:21.839Z,27.80
2019-01-19T04:28:49.776Z,27.90
2019-01-19T04:31:17.448Z,27.80
2019-01-19T04:33:45.125Z,27.80
2019-01-19T04:36:21.229Z,27.80
2019-01-19T04:38:42.423Z,27.80
2019-01-19T04:41:10.031Z,27.80
2019-01-19T04:43:37.693Z,27.80
2019-01-19T04:46:05.376Z,27.80
2019-01-19T04:48:33.372Z,27.80
2019-01-19T04:51:01.030Z,27.80
2019-01-19T04:53:28.695Z,27.80
2019-01-19T04:55:56.340Z,27.80
2019-01-19T04:58:24.137Z,27.80
2019-01-19T05:00:51.826Z,27.80
2019-01-19T05:03:19.561Z,27.80
2019-01-19T05:05:47.160Z,27.80
2019-01-19T05:08:14.742Z,27.80
2019-01-19T05:10:42.373Z,27.80
2019-01-19T05:13:10.004Z,27.80
2019-01-19T05:15:37.603Z,27.80
2019-01-19T05:18:05.520Z,27.80
2019-01-19T05:20:33.214Z,27.80
2019-01-19T05:23:00.803Z,27.80
2019-01-19T05:25:28.457Z,27.90
2019-01-19T05:27:56.044Z,27.80
2019-01-19T05:30:23.629Z,27.80
2019-01-19T05:32:51.639Z,27.80
2019-01-19T05:35:19.289Z,27.80
2019-01-19T05:37:46.896Z,27.80
2019-01-19T05:40:14.552Z,27.80
2019-01-19T05:42:42.164Z,27.80
2019-01-19T05:45:10.884Z,27.80
2019-01-19T05:47:38.526Z,27.80
2019-01-19T05:50:10.481Z,27.80
2019-01-19T05:52:38.094Z,27.80
2019-01-19T05:55:06.583Z,27.80
2019-01-19T05:57:34.195Z,27.80
2019-01-19T06:00:01.939Z,28.30
2019-01-19T06:02:29.679Z,27.80
2019-01-19T06:04:57.323Z,27.80
2019-01-19T06:07:24.969Z,27.80
2019-01-19T06:09:52.578Z,27.80
2019-01-19T06:12:20.266Z,27.80
2019-01-19T06:14:47.979Z,27.80
2019-01-19T06:17:15.560Z,27.80
2019-01-19T06:19:43.375Z,27.80
2019-01-19T06:22:11.226Z,27.80
2019-01-19T06:24:38.801Z,27.80
2019-01-19T06:27:06.468Z,27.80
2019-01-19T06:29:34.075Z,27.80
2019-01-19T06:32:01.736Z,27.80
2019-01-19T06:34:29.395Z,27.80
2019-01-19T06:36:56.997Z,27.80
2019-01-19T06:39:24.625Z,27.80
2019-01-19T06:41:52.331Z,27.80
2019-01-19T06:44:20.033Z,27.80
2019-01-19T06:46:47.659Z,27.80
2019-01-19T06:49:27.028Z,27.80
2019-01-19T06:51:54.702Z,27.80
2019-01-19T06:54:22.694Z,27.80
2019-01-19T06:56:50.386Z,27.80
2019-01-19T06:59:18.076Z,27.80
2019-01-19T07:01:45.767Z,27.80
2019-01-19T07:04:13.490Z,27.80
2019-01-19T07:06:41.153Z,27.80
2019-01-19T07:09:08.819Z,27.80
2019-01-19T07:11:36.687Z,27.90
2019-01-19T07:14:04.421Z,28.00
2019-01-19T07:16:32.170Z,28.00
2019-01-19T07:18:59.853Z,33.10
2019-01-19T07:21:27.505Z,31.50
2019-01-19T07:23:55.197Z,33.30
2019-01-19T07:26:22.870Z,33.30
2019-01-19T07:28:50.531Z,35.20
2019-01-19T07:31:18.147Z,32.40
2019-01-19T07:33:45.783Z,31.90
2019-01-19T07:36:13.487Z,32.20
2019-01-19T07:38:41.162Z,32.90
2019-01-19T07:41:14.744Z,31.70
2019-01-19T07:43:42.541Z,31.30
2019-01-19T07:46:11.183Z,31.10
2019-01-19T07:48:38.899Z,31.00
2019-01-19T07:51:06.531Z,30.90
2019-01-19T07:53:34.127Z,30.80
2019-01-19T07:56:01.839Z,30.90
2019-01-19T07:58:29.567Z,30.80
2019-01-19T08:00:57.203Z,30.70
2019-01-19T08:03:24.951Z,30.80
2019-01-19T08:05:52.633Z,30.60
2019-01-19T08:08:20.358Z,30.60
2019-01-19T08:10:48.070Z,30.30
2019-01-19T08:13:15.765Z,29.60
2019-01-19T08:15:43.465Z,30.00
2019-01-19T08:18:11.045Z,30.20
2019-01-19T08:20:38.681Z,30.30
2019-01-19T08:23:06.429Z,30.50
2019-01-19T08:25:34.067Z,31.10
2019-01-19T08:28:01.732Z,31.20
2019-01-19T08:30:29.896Z,31.10
2019-01-19T08:32:57.543Z,30.80
2019-01-19T08:35:25.203Z,30.60
2019-01-19T08:37:52.870Z,30.50
2019-01-19T08:40:25.195Z,30.50
2019-01-19T08:42:57.245Z,30.10
2019-01-19T08:45:26.645Z,30.00
2019-01-19T08:47:54.732Z,30.00
2019-01-19T08:50:22.349Z,29.90
2019-01-19T08:52:50.084Z,30.00
2019-01-19T08:55:17.959Z,30.10
2019-01-19T08:57:45.722Z,30.30
2019-01-19T09:00:17.060Z,30.00
2019-01-19T09:02:44.639Z,29.30
2019-01-19T09:05:12.443Z,28.20
2019-01-19T09:07:40.217Z,28.10
2019-01-19T09:10:09.569Z,28.00
2019-01-19T09:12:37.165Z,27.10
2019-01-19T09:15:06.496Z,26.60
2019-01-19T09:17:34.116Z,25.70
2019-01-19T09:20:01.684Z,25.30
2019-01-19T09:22:29.389Z,24.80
2019-01-19T09:24:57.042Z,24.30
2019-01-19T09:27:24.688Z,24.40
2019-01-19T09:29:52.412Z,24.50
2019-01-19T09:32:20.218Z,24.70
2019-01-19T09:34:48.009Z,24.80
2019-01-19T09:37:15.632Z,24.90
2019-01-19T09:39:43.275Z,25.00
2019-01-19T09:42:10.880Z,25.00
2019-01-19T09:44:38.542Z,25.20
2019-01-19T09:47:06.165Z,25.50
2019-01-19T09:49:33.865Z,25.70
2019-01-19T09:52:01.495Z,25.70
2019-01-19T09:54:29.150Z,25.80
2019-01-19T09:56:56.813Z,25.80
2019-01-19T09:59:24.453Z,25.80
2019-01-19T10:01:52.102Z,26.00
2019-01-19T10:04:19.682Z,25.90
2019-01-19T10:06:48.239Z,25.90
2019-01-19T10:09:16.161Z,26.00
2019-01-19T10:11:43.758Z,26.00
2019-01-19T10:14:11.353Z,26.20
2019-01-19T10:16:39.042Z,25.90
2019-01-19T10:19:06.624Z,26.00
2019-01-19T10:21:34.750Z,26.00
2019-01-19T10:24:02.432Z,26.00
2019-01-19T10:26:30.135Z,25.90
2019-01-19T10:28:58.039Z,26.00
2019-01-19T10:31:25.700Z,26.00
2019-01-19T10:33:53.329Z,26.10
2019-01-19T10:36:20.926Z,26.10
2019-01-19T10:38:48.630Z,26.20
2019-01-19T10:41:16.350Z,26.90
2019-01-19T10:43:44.014Z,27.30
2019-01-19T10:46:11.678Z,27.20
2019-01-19T10:48:39.318Z,28.50
2019-01-19T10:51:06.926Z,28.40
2019-01-19T10:53:34.711Z,28.40
2019-01-19T10:56:02.302Z,28.40
2019-01-19T10:58:29.942Z,28.50
2019-01-19T11:00:57.608Z,28.60
2019-01-19T11:03:25.261Z,28.50
2019-01-19T11:05:52.863Z,28.60
2019-01-19T11:08:20.540Z,28.60
2019-01-19T11:10:48.294Z,28.60
2019-01-19T11:13:15.984Z,28.60
2019-01-19T11:15:43.758Z,28.60
2019-01-19T11:18:11.420Z,28.60
2019-01-19T11:20:39.142Z,28.50
2019-01-19T11:23:06.824Z,28.50
2019-01-19T11:25:34.516Z,28.50
2019-01-19T11:28:02.178Z,28.40
2019-01-19T11:30:30.748Z,28.30
2019-01-19T11:32:58.386Z,27.70
2019-01-19T11:35:26.131Z,27.70
2019-01-19T11:37:53.823Z,27.10
2019-01-19T11:40:29.001Z,26.70
2019-01-19T11:42:56.750Z,26.40
2019-01-19T11:45:24.412Z,26.10
2019-01-19T11:47:52.084Z,25.90
2019-01-19T11:50:19.812Z,26.30
2019-01-19T11:52:47.634Z,25.20
2019-01-19T11:55:17.817Z,25.20
2019-01-19T11:57:45.563Z,25.10
2019-01-19T12:00:17.845Z,25.10
2019-01-19T12:02:45.492Z,27.10
2019-01-19T12:05:13.124Z,26.70
2019-01-19T12:07:40.770Z,25.30
2019-01-19T12:10:10.006Z,25.30
2019-01-19T12:12:37.663Z,25.30
2019-01-19T12:15:06.542Z,25.30
2019-01-19T12:17:34.207Z,25.30
2019-01-19T12:20:01.983Z,25.30
2019-01-19T12:22:29.682Z,25.80
2019-01-19T12:24:57.365Z,26.20
2019-01-19T12:27:25.011Z,26.40
2019-01-19T12:29:52.709Z,26.30
2019-01-19T12:32:20.367Z,25.40
2019-01-19T12:34:48.060Z,25.50
2019-01-19T12:37:15.961Z,25.90
2019-01-19T12:39:43.647Z,26.40
2019-01-19T12:42:11.353Z,26.90
2019-01-19T12:44:39.058Z,27.30
2019-01-19T12:47:06.754Z,27.60
2019-01-19T12:49:34.455Z,27.90
2019-01-19T12:52:02.116Z,28.10
2019-01-19T12:54:29.713Z,28.30
2019-01-19T12:56:57.342Z,28.80
2019-01-19T12:59:25.184Z,28.80
2019-01-19T13:01:52.863Z,28.80
2019-01-19T13:04:20.491Z,28.80
2019-01-19T13:06:48.834Z,28.80
2019-01-19T13:09:16.556Z,28.70
2019-01-19T13:11:55.002Z,28.70
2019-01-19T13:14:23.552Z,28.80
2019-01-19T13:17:01.918Z,28.70
2019-01-19T13:19:31.183Z,28.70
2019-01-19T13:22:03.511Z,28.70
2019-01-19T13:24:47.516Z,28.70
2019-01-19T13:27:22.894Z,28.70
2019-01-19T13:29:57.794Z,28.90
2019-01-19T13:32:27.200Z,28.70
2019-01-19T13:34:56.451Z,28.70
2019-01-19T13:37:37.622Z,28.20
2019-01-19T13:40:09.520Z,27.90
2019-01-19T13:42:41.547Z,27.90
2019-01-19T13:45:13.463Z,27.90
2019-01-19T13:48:00.805Z,27.80
2019-01-19T13:50:47.997Z,27.80
2019-01-19T13:53:23.335Z,27.90
2019-01-19T13:55:52.676Z,27.50
2019-01-19T13:58:21.979Z,27.30
2019-01-19T14:00:54.097Z,27.20
2019-01-19T14:03:29.490Z,27.30
2019-01-19T14:05:58.826Z,27.20
2019-01-19T14:08:30.871Z,26.90
2019-01-19T14:11:05.979Z,26.50
2019-01-19T14:13:41.179Z,26.20
2019-01-19T14:16:19.512Z,26.20
2019-01-19T14:18:48.718Z,26.00
2019-01-19T14:21:21.182Z,25.90
2019-01-19T14:24:07.921Z,25.90
2019-01-19T14:26:55.104Z,25.90
2019-01-19T14:29:40.943Z,25.70
2019-01-19T14:32:22.317Z,25.60
2019-01-19T14:34:51.584Z,25.70
2019-01-19T14:37:20.850Z,25.60
2019-01-19T14:39:53.128Z,25.50
2019-01-19T14:42:25.613Z,25.50
2019-01-19T14:45:06.727Z,25.50
2019-01-19T14:47:39.135Z,25.30
2019-01-19T14:50:14.277Z,25.40
2019-01-19T14:52:59.885Z,25.30
2019-01-19T14:55:36.571Z,25.30
2019-01-19T14:58:03.307Z,25.30
2019-01-19T15:00:38.633Z,25.30
2019-01-19T15:03:26.179Z,25.60
2019-01-19T15:06:00.961Z,26.70
2019-01-19T15:08:36.099Z,27.20
2019-01-19T15:11:23.287Z,27.20
2019-01-19T15:13:55.343Z,26.80
2019-01-19T15:16:39.705Z,26.40
2019-01-19T15:19:12.043Z,26.30
2019-01-19T15:21:44.203Z,26.20
2019-01-19T15:24:13.609Z,26.10
2019-01-19T15:27:01.083Z,26.20
2019-01-19T15:29:47.107Z,26.20
2019-01-19T15:32:16.481Z,25.80
2019-01-19T15:34:51.593Z,26.00
2019-01-19T15:37:37.708Z,25.90
2019-01-19T15:40:09.728Z,26.00
2019-01-19T15:42:41.775Z,26.40
2019-01-19T15:45:27.755Z,26.50
2019-01-19T15:48:03.141Z,26.50
2019-01-19T15:50:32.461Z,26.40
2019-01-19T15:53:01.804Z,26.10
2019-01-19T15:55:33.802Z,26.00
2019-01-19T15:58:12.081Z,25.80
2019-01-19T16:00:41.342Z,25.90
2019-01-19T16:03:10.569Z,25.90
2019-01-19T16:05:42.591Z,25.90
2019-01-19T16:08:14.926Z,25.90
2019-01-19T16:10:47.285Z,25.90
2019-01-19T16:13:34.521Z,25.90
2019-01-19T16:16:12.678Z,25.90
2019-01-19T16:18:41.919Z,25.90
2019-01-19T16:21:11.169Z,25.90
2019-01-19T16:23:40.486Z,25.90
2019-01-19T16:26:21.942Z,25.90
2019-01-19T16:29:06.302Z,25.90
2019-01-19T16:31:35.550Z,25.80
2019-01-19T16:34:07.925Z,25.80
2019-01-19T16:36:42.991Z,25.80
2019-01-19T16:39:12.354Z,25.80
2019-01-19T16:41:47.578Z,25.90
2019-01-19T16:44:16.925Z,25.90
2019-01-19T16:46:48.935Z,25.80
2019-01-19T16:49:21.263Z,25.80
2019-01-19T16:51:50.574Z,25.80
2019-01-19T16:54:20.185Z,25.80
2019-01-19T16:56:52.529Z,25.80
2019-01-19T16:59:21.754Z,25.90
2019-01-19T17:01:59.940Z,25.80
2019-01-19T17:04:38.118Z,25.70
2019-01-19T17:07:19.578Z,25.80
2019-01-19T17:09:48.877Z,25.70
2019-01-19T17:12:18.169Z,25.80
2019-01-19T17:14:53.465Z,25.80
2019-01-19T17:17:34.489Z,25.70
2019-01-19T17:20:03.837Z,25.70
2019-01-19T17:22:33.145Z,25.70
2019-01-19T17:25:05.185Z,25.80
2019-01-19T17:27:40.482Z,25.60
2019-01-19T17:30:18.736Z,25.80
2019-01-19T17:33:03.173Z,25.70
2019-01-19T17:35:41.692Z,25.70
2019-01-19T17:38:13.997Z,25.70
2019-01-19T17:40:46.295Z,25.70
2019-01-19T17:43:18.620Z,25.70
2019-01-19T17:45:53.720Z,25.70
2019-01-19T17:48:38.106Z,25.60
2019-01-19T17:51:13.219Z,25.60
2019-01-19T17:53:45.238Z,25.60
2019-01-19T17:56:14.577Z,25.70
2019-01-19T17:58:50.022Z,25.70
2019-01-19T18:01:19.378Z,25.80
2019-01-19T18:04:05.330Z,25.70
2019-01-19T18:06:34.657Z,25.70
2019-01-19T18:09:04.272Z,25.60
2019-01-19T18:11:33.551Z,25.60
2019-01-19T18:14:08.882Z,25.50
2019-01-19T18:16:38.186Z,25.60
2019-01-19T18:19:07.415Z,25.50
2019-01-19T18:21:48.618Z,25.50
2019-01-19T18:24:26.597Z,25.50
2019-01-19T18:27:07.904Z,25.50
2019-01-19T18:29:43.218Z,25.50
2019-01-19T18:32:18.169Z,25.50
2019-01-19T18:34:56.640Z,25.50
2019-01-19T18:37:44.030Z,25.50
2019-01-19T18:40:13.389Z,25.60
2019-01-19T18:42:51.512Z,25.20
2019-01-19T18:45:20.874Z,25.40
2019-01-19T18:47:50.234Z,25.50
2019-01-19T18:50:19.525Z,25.50
2019-01-19T18:52:54.857Z,25.40
2019-01-19T18:55:27.114Z,25.80
2019-01-19T18:58:03.015Z,27.80
2019-01-19T19:00:35.387Z,27.10
2019-01-19T19:03:07.833Z,26.90
2019-01-19T19:05:43.002Z,26.90
2019-01-19T19:08:15.366Z,26.90
2019-01-19T19:11:00.870Z,26.90
2019-01-19T19:13:42.112Z,27.00
2019-01-19T19:16:14.628Z,26.90
2019-01-19T19:18:43.932Z,26.70
2019-01-19T19:21:16.286Z,26.80
2019-01-19T19:23:57.403Z,27.20
2019-01-19T19:26:35.836Z,27.10
2019-01-19T19:29:14.304Z,26.90
2019-01-19T19:32:00.269Z,26.80
2019-01-19T19:34:35.803Z,23.40
2019-01-19T19:37:05.178Z,18.30
2019-01-19T19:39:34.474Z,16.60
2019-01-19T19:42:03.731Z,15.40
2019-01-19T19:44:38.759Z,14.50
2019-01-19T19:47:14.189Z,14.10
2019-01-19T19:49:43.576Z,15.40
2019-01-19T19:52:11.572Z,17.10
2019-01-19T19:54:39.313Z,18.00
2019-01-19T19:57:07.081Z,18.80
2019-01-19T19:59:34.861Z,19.70
2019-01-19T20:02:02.558Z,20.10
2019-01-19T20:04:30.259Z,20.20
2019-01-19T20:06:58.133Z,20.30
2019-01-19T20:09:25.865Z,20.40
2019-01-19T20:11:55.218Z,20.70
2019-01-19T20:14:22.842Z,20.80
2019-01-19T20:16:52.697Z,21.00
2019-01-19T20:19:20.429Z,21.00
2019-01-19T20:21:48.050Z,21.40
2019-01-19T20:24:15.751Z,21.70
2019-01-19T20:26:43.487Z,21.70
2019-01-19T20:29:11.275Z,22.00
2019-01-19T20:31:38.983Z,22.10
2019-01-19T20:34:06.687Z,22.20
2019-01-19T20:36:34.595Z,22.40
2019-01-19T20:39:02.224Z,22.50
2019-01-19T20:41:29.954Z,22.50
2019-01-19T20:43:57.690Z,22.90
2019-01-19T20:46:25.318Z,23.20
2019-01-19T20:48:52.926Z,23.30
2019-01-19T20:51:20.624Z,23.30
2019-01-19T20:53:48.247Z,23.30
2019-01-19T20:56:16.038Z,23.30
2019-01-19T20:58:43.759Z,23.30
2019-01-19T21:01:11.473Z,23.40
2019-01-19T21:03:39.167Z,23.40
2019-01-19T21:06:06.779Z,23.30
2019-01-19T21:08:34.457Z,23.40
2019-01-19T21:11:02.168Z,23.40
2019-01-19T21:13:29.899Z,23.40
2019-01-19T21:15:57.516Z,23.40
2019-01-19T21:18:25.287Z,23.40
2019-01-19T21:20:52.962Z,23.40
2019-01-19T21:23:20.667Z,23.40
2019-01-19T21:25:48.371Z,23.40
2019-01-19T21:28:16.072Z,23.50
2019-01-19T21:30:43.777Z,24.10
2019-01-19T21:33:11.463Z,24.00
2019-01-19T21:35:39.314Z,24.20
2019-01-19T21:38:06.972Z,24.30
2019-01-19T21:40:38.911Z,24.40
2019-01-19T21:43:03.965Z,24.40
2019-01-19T21:45:31.594Z,24.50
2019-01-19T21:47:59.419Z,24.50
2019-01-19T21:50:27.074Z,24.60
2019-01-19T21:52:54.699Z,24.70
2019-01-19T21:55:22.359Z,24.80
2019-01-19T21:57:50.009Z,24.80
2019-01-19T22:00:18.520Z,24.90
2019-01-19T22:02:46.547Z,24.90
2019-01-19T22:05:14.148Z,25.00
2019-01-19T22:07:41.755Z,25.00
2019-01-19T22:10:10.955Z,25.00
2019-01-19T22:12:38.609Z,25.10
2019-01-19T22:15:07.868Z,25.10
2019-01-19T22:17:39.479Z,25.10
2019-01-19T22:20:06.656Z,25.10
2019-01-19T22:22:34.331Z,25.30
2019-01-19T22:25:02.014Z,25.30
2019-01-19T22:27:29.867Z,25.40
2019-01-19T22:29:57.689Z,25.30
2019-01-19T22:32:25.401Z,25.40
2019-01-19T22:34:53.122Z,25.30
2019-01-19T22:37:20.802Z,25.40
2019-01-19T22:39:48.411Z,25.40
2019-01-19T22:42:16.217Z,25.40
2019-01-19T22:44:43.842Z,25.40
2019-01-19T22:47:11.482Z,25.40
2019-01-19T22:49:39.113Z,25.40
2019-01-19T22:52:06.749Z,25.40
2019-01-19T22:54:34.658Z,25.40
2019-01-19T22:57:02.289Z,25.40
2019-01-19T22:59:29.944Z,25.40
2019-01-19T23:01:57.655Z,25.50
2019-01-19T23:04:25.396Z,25.50
2019-01-19T23:06:53.081Z,25.50
2019-01-19T23:09:20.747Z,25.60
2019-01-19T23:11:50.126Z,25.60
2019-01-19T23:14:17.885Z,25.60
2019-01-19T23:16:45.505Z,25.50
2019-01-19T23:19:13.287Z,25.60
2019-01-19T23:21:40.966Z,25.60
2019-01-19T23:24:08.653Z,25.60
2019-01-19T23:26:36.574Z,25.70
2019-01-19T23:29:04.183Z,25.70
2019-01-19T23:31:31.865Z,25.70
2019-01-19T23:33:59.553Z,25.70
2019-01-19T23:36:27.390Z,25.80
2019-01-19T23:38:55.108Z,25.70
2019-01-19T23:41:22.757Z,25.80
2019-01-19T23:43:51.725Z,25.80
2019-01-19T23:46:19.334Z,25.80
2019-01-19T23:48:47.004Z,25.80
2019-01-19T23:51:14.720Z,25.90
2019-01-19T23:53:42.473Z,25.90
2019-01-19T23:56:10.085Z,26.00
2019-01-19T23:58:37.856Z,26.00
